createdAt,value
2022-08-17T00:00:44.062Z,41.98
2022-08-17T00:01:51.398Z,41.88
2022-08-17T00:02:36.000Z,42.08
2022-08-17T00:03:32.903Z,41.98
2022-08-17T00:04:31.892Z,41.88
2022-08-17T00:05:31.975Z,41.88
2022-08-17T00:06:31.872Z,41.98
2022-08-17T00:07:31.861Z,41.98
2022-08-17T00:08:31.850Z,42.10
2022-08-17T00:09:31.845Z,41.88
2022-08-17T00:10:32.409Z,42.08
2022-08-17T00:11:31.836Z,41.88
2022-08-17T00:12:43.155Z,41.98
2022-08-17T00:13:32.793Z,41.98
2022-08-17T00:14:31.784Z,42.00
2022-08-17T00:15:31.776Z,41.88
2022-08-17T00:16:55.861Z,41.90
2022-08-17T00:17:32.771Z,41.98
2022-08-17T00:19:01.476Z,41.98
2022-08-17T00:19:32.958Z,42.00
2022-08-17T00:20:35.012Z,42.19
2022-08-17T00:21:44.672Z,41.98
2022-08-17T00:22:36.361Z,42.27
2022-08-17T00:23:31.692Z,42.39
2022-08-17T00:24:31.676Z,42.19
2022-08-17T00:25:31.664Z,42.19
2022-08-17T00:26:44.617Z,42.49
2022-08-17T00:27:32.641Z,42.49
2022-08-17T00:28:33.282Z,42.49
2022-08-17T00:29:31.649Z,42.49
2022-08-17T00:30:31.611Z,42.49
2022-08-17T00:31:32.597Z,42.49
2022-08-17T00:33:12.631Z,42.58
2022-08-17T00:33:32.575Z,42.29
2022-08-17T00:34:31.565Z,42.58
2022-08-17T00:35:31.561Z,42.49
2022-08-17T00:36:31.546Z,42.27
2022-08-17T00:37:31.534Z,42.58
2022-08-17T00:38:31.527Z,42.27
2022-08-17T00:39:31.586Z,42.27
2022-08-17T00:40:44.563Z,42.27
2022-08-17T00:41:32.523Z,42.58
2022-08-17T00:42:31.509Z,42.47
2022-08-17T00:43:31.466Z,42.39
2022-08-17T00:44:31.455Z,42.39
2022-08-17T00:45:31.444Z,42.58
2022-08-17T00:46:31.434Z,42.49
2022-08-17T00:47:31.427Z,42.49
2022-08-17T00:48:31.412Z,42.37
2022-08-17T00:49:31.401Z,42.58
2022-08-17T00:50:31.389Z,42.79
2022-08-17T00:51:31.379Z,42.37
2022-08-17T00:52:31.369Z,42.58
2022-08-17T00:53:31.372Z,42.98
2022-08-17T00:54:31.360Z,42.49
2022-08-17T00:55:31.334Z,42.88
2022-08-17T00:56:31.325Z,42.88
2022-08-17T00:57:31.313Z,42.58
2022-08-17T00:58:36.675Z,42.68
2022-08-17T00:59:32.296Z,42.88
2022-08-17T01:00:31.279Z,42.19
2022-08-17T01:01:31.294Z,42.98
2022-08-17T01:02:34.901Z,42.39
2022-08-17T01:03:32.245Z,42.58
2022-08-17T01:04:31.237Z,42.88
2022-08-17T01:05:31.257Z,42.88
2022-08-17T01:06:31.215Z,42.39
2022-08-17T01:07:31.203Z,42.88
2022-08-17T01:08:31.193Z,42.86
2022-08-17T01:09:31.181Z,42.49
2022-08-17T01:10:58.657Z,42.79
2022-08-17T01:11:32.165Z,42.88
2022-08-17T01:12:31.147Z,42.58
2022-08-17T01:13:31.136Z,42.47
2022-08-17T01:14:31.128Z,42.49
2022-08-17T01:15:31.117Z,42.58
2022-08-17T01:16:31.104Z,42.58
2022-08-17T01:17:31.114Z,42.58
2022-08-17T01:18:31.082Z,42.49
2022-08-17T01:19:31.071Z,42.58
2022-08-17T01:20:31.059Z,42.68
2022-08-17T01:21:32.050Z,42.49
2022-08-17T01:22:31.038Z,42.58
2022-08-17T01:23:31.033Z,42.68
2022-08-17T01:24:31.016Z,42.68
2022-08-17T01:25:31.009Z,42.58
2022-08-17T01:26:30.994Z,42.68
2022-08-17T01:27:30.984Z,42.49
2022-08-17T01:28:36.401Z,42.29
2022-08-17T01:29:31.977Z,42.68
2022-08-17T01:30:57.225Z,42.68
2022-08-17T01:31:31.938Z,42.79
2022-08-17T01:32:30.928Z,42.79
2022-08-17T01:33:30.922Z,42.68
2022-08-17T01:34:42.706Z,42.58
2022-08-17T01:35:31.899Z,42.58
2022-08-17T01:36:30.891Z,42.79
2022-08-17T01:37:30.873Z,42.98
2022-08-17T01:38:30.865Z,42.79
2022-08-17T01:39:30.883Z,42.98
2022-08-17T01:40:30.839Z,42.58
2022-08-17T01:41:30.877Z,42.29
2022-08-17T01:42:30.817Z,42.29
2022-08-17T01:43:30.808Z,42.29
2022-08-17T01:44:30.795Z,42.29
2022-08-17T01:45:30.785Z,42.79
2022-08-17T01:46:30.774Z,42.68
2022-08-17T01:47:31.090Z,42.49
2022-08-17T01:48:30.753Z,42.19
2022-08-17T01:49:30.742Z,42.49
2022-08-17T01:50:30.749Z,42.29
2022-08-17T01:51:30.719Z,42.49
2022-08-17T01:52:30.708Z,42.49
2022-08-17T01:53:30.710Z,42.49
2022-08-17T01:54:30.686Z,42.49
2022-08-17T01:55:30.677Z,42.29
2022-08-17T01:56:30.664Z,42.29
2022-08-17T01:57:30.654Z,42.49
2022-08-17T01:58:30.642Z,42.19
2022-08-17T01:59:30.638Z,42.39
2022-08-17T02:00:59.641Z,42.29
2022-08-17T02:01:31.682Z,42.19
2022-08-17T02:02:31.569Z,42.10
2022-08-17T02:03:30.588Z,42.39
2022-08-17T02:04:30.577Z,42.29
2022-08-17T02:05:30.582Z,42.10
2022-08-17T02:06:30.559Z,42.29
2022-08-17T02:07:31.544Z,42.29
2022-08-17T02:08:37.341Z,42.29
2022-08-17T02:09:31.521Z,42.29
2022-08-17T02:10:34.224Z,42.10
2022-08-17T02:11:30.507Z,42.19
2022-08-17T02:12:39.468Z,42.19
2022-08-17T02:13:31.476Z,42.29
2022-08-17T02:14:30.468Z,42.29
2022-08-17T02:15:30.457Z,42.19
2022-08-17T02:16:37.105Z,42.19
2022-08-17T02:17:31.455Z,42.29
2022-08-17T02:18:30.425Z,42.29
2022-08-17T02:19:30.413Z,42.39
2022-08-17T02:20:41.552Z,42.49
2022-08-17T02:21:31.394Z,42.19
2022-08-17T02:22:30.379Z,42.19
2022-08-17T02:23:30.398Z,42.39
2022-08-17T02:25:00.214Z,42.29
2022-08-17T02:25:31.345Z,42.29
2022-08-17T02:26:30.339Z,42.19
2022-08-17T02:27:30.327Z,42.10
2022-08-17T02:28:30.313Z,42.29
2022-08-17T02:29:30.309Z,42.29
2022-08-17T02:31:02.293Z,42.10
2022-08-17T02:31:31.280Z,42.00
2022-08-17T02:32:30.270Z,42.29
2022-08-17T02:33:41.999Z,42.10
2022-08-17T02:34:31.254Z,42.00
2022-08-17T02:35:30.239Z,42.19
2022-08-17T02:36:30.225Z,42.19
2022-08-17T02:37:30.215Z,42.10
2022-08-17T02:38:30.203Z,42.29
2022-08-17T02:39:30.275Z,42.19
2022-08-17T02:40:35.671Z,42.29
2022-08-17T02:41:31.191Z,42.10
2022-08-17T02:42:30.162Z,42.19
2022-08-17T02:43:30.156Z,42.11
2022-08-17T02:44:39.923Z,42.10
2022-08-17T02:45:31.153Z,42.10
2022-08-17T02:46:30.115Z,42.19
2022-08-17T02:47:30.104Z,42.00
2022-08-17T02:48:31.404Z,42.10
2022-08-17T02:49:30.086Z,42.19
2022-08-17T02:50:30.073Z,42.21
2022-08-17T02:51:30.083Z,42.11
2022-08-17T02:52:42.663Z,42.10
2022-08-17T02:53:35.818Z,42.19
2022-08-17T02:54:41.538Z,42.10
2022-08-17T02:55:31.015Z,42.68
2022-08-17T02:56:30.007Z,42.19
2022-08-17T02:57:30.016Z,42.71
2022-08-17T02:58:35.292Z,42.19
2022-08-17T02:59:30.972Z,42.80
2022-08-17T03:00:29.962Z,42.71
2022-08-17T03:01:29.984Z,42.39
2022-08-17T03:02:29.940Z,42.58
2022-08-17T03:03:29.937Z,42.49
2022-08-17T03:04:29.918Z,42.19
2022-08-17T03:05:29.905Z,42.58
2022-08-17T03:06:29.895Z,42.88
2022-08-17T03:07:29.885Z,42.32
2022-08-17T03:08:29.873Z,42.79
2022-08-17T03:09:29.876Z,42.39
2022-08-17T03:10:29.854Z,42.79
2022-08-17T03:11:29.842Z,42.19
2022-08-17T03:12:29.829Z,42.79
2022-08-17T03:13:29.819Z,42.29
2022-08-17T03:14:29.808Z,42.58
2022-08-17T03:15:29.814Z,42.49
2022-08-17T03:16:29.785Z,42.71
2022-08-17T03:17:29.775Z,42.68
2022-08-17T03:18:29.763Z,42.61
2022-08-17T03:19:29.753Z,42.58
2022-08-17T03:20:29.741Z,42.58
2022-08-17T03:21:29.736Z,42.49
2022-08-17T03:22:36.165Z,42.29
2022-08-17T03:23:30.708Z,42.39
2022-08-17T03:24:29.713Z,42.39
2022-08-17T03:25:29.688Z,42.80
2022-08-17T03:26:29.927Z,42.61
2022-08-17T03:27:29.685Z,42.51
2022-08-17T03:28:29.661Z,42.51
2022-08-17T03:29:29.642Z,42.51
2022-08-17T03:30:29.632Z,42.61
2022-08-17T03:31:29.620Z,42.58
2022-08-17T03:32:29.609Z,42.58
2022-08-17T03:33:29.628Z,42.49
2022-08-17T03:34:29.589Z,42.58
2022-08-17T03:35:29.577Z,42.61
2022-08-17T03:36:29.565Z,42.51
2022-08-17T03:37:29.556Z,42.61
2022-08-17T03:38:29.542Z,42.58
2022-08-17T03:39:30.591Z,42.58
2022-08-17T03:40:34.585Z,42.58
2022-08-17T03:41:30.510Z,42.88
2022-08-17T03:42:32.314Z,42.58
2022-08-17T03:43:29.490Z,42.58
2022-08-17T03:44:29.478Z,42.79
2022-08-17T03:45:29.472Z,42.79
2022-08-17T03:46:34.969Z,42.58
2022-08-17T03:47:30.443Z,42.51
2022-08-17T03:48:29.434Z,42.61
2022-08-17T03:49:29.422Z,42.51
2022-08-17T03:50:29.412Z,42.49
2022-08-17T03:51:29.415Z,42.61
2022-08-17T03:52:29.388Z,42.49
2022-08-17T03:53:29.380Z,42.61
2022-08-17T03:54:29.367Z,42.51
2022-08-17T03:55:35.797Z,42.49
2022-08-17T03:56:30.366Z,42.71
2022-08-17T03:57:29.340Z,42.61
2022-08-17T03:58:29.325Z,42.90
2022-08-17T03:59:29.312Z,42.61
2022-08-17T04:00:29.302Z,42.80
2022-08-17T04:01:29.398Z,42.58
2022-08-17T04:02:29.284Z,42.61
2022-08-17T04:03:29.268Z,42.51
2022-08-17T04:04:29.257Z,42.61
2022-08-17T04:05:29.249Z,42.61
2022-08-17T04:06:29.235Z,42.58
2022-08-17T04:07:29.223Z,42.68
2022-08-17T04:08:29.218Z,42.58
2022-08-17T04:09:29.202Z,42.58
2022-08-17T04:10:29.190Z,42.61
2022-08-17T04:11:29.181Z,42.58
2022-08-17T04:12:29.170Z,42.49
2022-08-17T04:13:29.160Z,42.58
2022-08-17T04:14:29.153Z,42.71
2022-08-17T04:15:29.136Z,42.49
2022-08-17T04:16:29.125Z,42.61
2022-08-17T04:17:29.167Z,42.61
2022-08-17T04:18:29.103Z,42.79
2022-08-17T04:19:29.093Z,42.29
2022-08-17T04:20:29.088Z,42.61
2022-08-17T04:21:29.072Z,42.49
2022-08-17T04:22:31.318Z,42.61
2022-08-17T04:23:29.048Z,42.49
2022-08-17T04:24:29.036Z,42.61
2022-08-17T04:25:29.025Z,42.49
2022-08-17T04:26:53.024Z,42.61
2022-08-17T04:27:30.003Z,42.49
2022-08-17T04:28:28.993Z,42.49
2022-08-17T04:29:28.983Z,42.61
2022-08-17T04:31:39.041Z,42.51
2022-08-17T04:33:04.467Z,42.32
2022-08-17T04:33:40.004Z,42.49
2022-08-17T04:34:38.989Z,42.80
2022-08-17T04:35:38.977Z,42.49
2022-08-17T04:36:38.969Z,42.49
2022-08-17T04:37:38.962Z,42.68
2022-08-17T04:38:38.947Z,42.41
2022-08-17T04:39:38.967Z,42.58
2022-08-17T04:40:38.922Z,42.79
2022-08-17T04:41:38.911Z,42.29
2022-08-17T04:42:38.901Z,42.80
2022-08-17T04:43:38.895Z,42.71
2022-08-17T04:44:38.878Z,42.71
2022-08-17T04:45:38.870Z,42.51
2022-08-17T04:46:38.857Z,42.71
2022-08-17T04:47:38.846Z,42.29
2022-08-17T04:48:38.843Z,42.10
2022-08-17T04:49:38.830Z,42.68
2022-08-17T04:50:38.818Z,42.10
2022-08-17T04:51:38.801Z,42.19
2022-08-17T04:52:43.635Z,42.10
2022-08-17T04:53:38.781Z,42.10
2022-08-17T04:54:38.773Z,42.11
2022-08-17T04:55:38.767Z,42.10
2022-08-17T04:56:38.748Z,42.19
2022-08-17T04:57:44.589Z,42.10
2022-08-17T04:58:39.724Z,42.29
2022-08-17T04:59:38.716Z,41.90
2022-08-17T05:00:38.703Z,42.10
2022-08-17T05:01:38.758Z,42.29
2022-08-17T05:02:38.682Z,41.90
2022-08-17T05:03:39.668Z,42.29
2022-08-17T05:04:38.660Z,42.49
2022-08-17T05:05:38.649Z,42.29
2022-08-17T05:06:38.638Z,42.29
2022-08-17T05:07:38.649Z,42.29
2022-08-17T05:08:38.621Z,42.39
2022-08-17T05:09:38.605Z,42.29
2022-08-17T05:10:45.124Z,42.19
2022-08-17T05:11:39.584Z,42.79
2022-08-17T05:12:39.602Z,42.79
2022-08-17T05:13:38.560Z,42.29
2022-08-17T05:14:38.550Z,42.68
2022-08-17T05:15:38.537Z,42.68
2022-08-17T05:16:39.527Z,42.29
2022-08-17T05:17:38.515Z,42.68
2022-08-17T05:18:38.512Z,42.98
2022-08-17T05:19:38.493Z,42.79
2022-08-17T05:20:38.486Z,42.98
2022-08-17T05:21:38.472Z,42.39
2022-08-17T05:22:38.466Z,42.49
2022-08-17T05:23:42.765Z,42.79
2022-08-17T05:24:43.391Z,42.68
2022-08-17T05:25:39.436Z,42.68
2022-08-17T05:26:38.417Z,42.58
2022-08-17T05:27:38.406Z,42.68
2022-08-17T05:28:38.393Z,42.68
2022-08-17T05:29:38.385Z,42.49
2022-08-17T05:30:38.380Z,42.49
2022-08-17T05:31:38.364Z,42.68
2022-08-17T05:32:40.312Z,42.49
2022-08-17T05:33:41.491Z,42.58
2022-08-17T05:34:39.330Z,42.58
2022-08-17T05:35:38.317Z,42.58
2022-08-17T05:36:43.915Z,42.58
2022-08-17T05:37:39.294Z,42.68
2022-08-17T05:38:38.286Z,42.58
2022-08-17T05:39:38.327Z,42.49
2022-08-17T05:40:38.281Z,42.49
2022-08-17T05:41:38.251Z,43.08
2022-08-17T05:42:38.271Z,42.68
2022-08-17T05:43:38.229Z,42.88
2022-08-17T05:44:38.220Z,42.88
2022-08-17T05:45:54.557Z,42.68
2022-08-17T05:46:39.199Z,42.88
2022-08-17T05:47:38.186Z,42.88
2022-08-17T05:48:39.371Z,42.88
2022-08-17T05:49:38.163Z,42.58
2022-08-17T05:50:38.153Z,42.88
2022-08-17T05:51:38.142Z,42.88
2022-08-17T05:52:38.130Z,42.79
2022-08-17T05:53:38.120Z,42.79
2022-08-17T05:54:38.114Z,42.68
2022-08-17T05:55:38.097Z,42.39
2022-08-17T05:56:38.087Z,42.39
2022-08-17T05:57:39.897Z,42.79
2022-08-17T05:58:39.063Z,42.79
2022-08-17T05:59:38.053Z,42.68
2022-08-17T06:00:42.139Z,42.98
2022-08-17T06:01:38.097Z,42.58
2022-08-17T06:02:38.020Z,42.68
2022-08-17T06:03:38.013Z,42.39
2022-08-17T06:04:37.999Z,42.98
2022-08-17T06:05:37.988Z,42.68
2022-08-17T06:06:37.999Z,42.58
2022-08-17T06:07:37.965Z,42.29
2022-08-17T06:08:37.965Z,42.57
2022-08-17T06:09:37.948Z,42.58
2022-08-17T06:10:37.933Z,42.88
2022-08-17T06:11:37.923Z,42.58
2022-08-17T06:12:37.933Z,42.47
2022-08-17T06:13:37.900Z,42.49
2022-08-17T06:14:37.889Z,42.68
2022-08-17T06:15:37.878Z,42.49
2022-08-17T06:16:37.868Z,42.47
2022-08-17T06:17:37.858Z,42.29
2022-08-17T06:18:37.851Z,42.49
2022-08-17T06:19:37.833Z,42.29
2022-08-17T06:20:37.825Z,42.29
2022-08-17T06:21:37.811Z,42.39
2022-08-17T06:22:37.802Z,42.49
2022-08-17T06:23:37.790Z,42.39
2022-08-17T06:24:37.790Z,42.39
2022-08-17T06:25:37.770Z,42.29
2022-08-17T06:26:42.469Z,42.29
2022-08-17T06:27:38.746Z,42.19
2022-08-17T06:28:37.734Z,42.58
2022-08-17T06:29:37.724Z,42.47
2022-08-17T06:30:59.944Z,42.47
2022-08-17T06:31:38.700Z,42.49
2022-08-17T06:32:37.691Z,42.49
2022-08-17T06:33:37.686Z,42.49
2022-08-17T06:34:37.670Z,42.49
2022-08-17T06:35:37.658Z,42.18
2022-08-17T06:36:37.653Z,42.18
2022-08-17T06:37:37.636Z,42.18
2022-08-17T06:38:38.788Z,41.98
2022-08-17T06:39:37.704Z,42.10
2022-08-17T06:40:37.606Z,41.98
2022-08-17T06:41:38.107Z,41.88
2022-08-17T06:43:02.465Z,41.98
2022-08-17T06:43:38.569Z,42.08
2022-08-17T06:44:42.320Z,42.27
2022-08-17T06:45:38.552Z,42.27
2022-08-17T06:46:37.545Z,42.27
2022-08-17T06:47:37.528Z,42.08
2022-08-17T06:48:37.521Z,41.98
2022-08-17T06:49:37.505Z,42.08
2022-08-17T06:50:37.494Z,41.98
2022-08-17T06:51:37.482Z,41.98
2022-08-17T06:52:46.185Z,41.98
2022-08-17T06:53:38.479Z,41.98
2022-08-17T06:54:37.449Z,41.98
2022-08-17T06:55:38.385Z,41.98
2022-08-17T06:56:53.762Z,41.78
2022-08-17T06:57:38.415Z,42.37
2022-08-17T06:58:37.406Z,41.98
2022-08-17T06:59:55.685Z,42.47
2022-08-17T07:00:38.469Z,41.49
2022-08-17T07:01:37.440Z,42.18
2022-08-17T07:02:52.579Z,42.18
2022-08-17T07:03:38.348Z,42.18
2022-08-17T07:04:37.339Z,41.88
2022-08-17T07:05:37.335Z,41.88
2022-08-17T07:06:37.939Z,41.78
2022-08-17T07:07:37.306Z,41.88
2022-08-17T07:08:37.295Z,41.98
2022-08-17T07:09:37.283Z,41.78
2022-08-17T07:10:37.273Z,41.78
2022-08-17T07:11:37.284Z,42.08
2022-08-17T07:12:37.250Z,41.39
2022-08-17T07:13:37.241Z,41.19
2022-08-17T07:14:37.230Z,41.29
2022-08-17T07:15:37.219Z,41.29
2022-08-17T07:16:37.207Z,41.68
2022-08-17T07:17:47.670Z,41.68
2022-08-17T07:18:38.183Z,41.68
2022-08-17T07:19:37.174Z,41.49
2022-08-17T07:20:37.163Z,41.58
2022-08-17T07:21:37.158Z,41.58
2022-08-17T07:22:53.525Z,41.49
2022-08-17T07:23:38.138Z,41.29
2022-08-17T07:24:37.119Z,41.49
2022-08-17T07:25:37.108Z,41.68
2022-08-17T07:26:37.097Z,41.27
2022-08-17T07:27:37.087Z,41.47
2022-08-17T07:28:37.075Z,41.47
2022-08-17T07:29:37.069Z,41.56
2022-08-17T07:30:42.999Z,41.66
2022-08-17T07:31:38.041Z,41.56
2022-08-17T07:32:37.032Z,41.47
2022-08-17T07:33:37.019Z,41.66
2022-08-17T07:34:37.009Z,41.66
2022-08-17T07:35:40.980Z,41.66
2022-08-17T07:36:37.986Z,41.47
2022-08-17T07:37:36.977Z,41.56
2022-08-17T07:38:36.965Z,41.66
2022-08-17T07:39:36.986Z,41.66
2022-08-17T07:40:37.981Z,41.47
2022-08-17T07:41:57.622Z,41.96
2022-08-17T07:42:41.822Z,41.86
2022-08-17T07:43:37.912Z,41.96
2022-08-17T07:44:36.898Z,41.66
2022-08-17T07:45:36.898Z,41.86
2022-08-17T07:46:36.908Z,41.86
2022-08-17T07:47:36.869Z,41.76
2022-08-17T07:48:36.854Z,41.86
2022-08-17T07:49:36.845Z,41.66
2022-08-17T07:50:36.833Z,41.76
2022-08-17T07:51:36.824Z,41.56
2022-08-17T07:52:51.973Z,41.56
2022-08-17T07:53:37.800Z,41.76
2022-08-17T07:54:36.794Z,41.76
2022-08-17T07:55:36.779Z,41.47
2022-08-17T07:56:36.768Z,41.47
2022-08-17T07:57:36.759Z,41.47
2022-08-17T07:58:36.752Z,41.76
2022-08-17T07:59:36.735Z,41.47
2022-08-17T08:00:36.728Z,41.37
2022-08-17T08:01:41.621Z,41.37
2022-08-17T08:02:37.700Z,41.37
2022-08-17T08:03:36.691Z,41.27
2022-08-17T08:04:58.908Z,41.27
2022-08-17T08:05:50.742Z,41.27
2022-08-17T08:06:37.657Z,41.47
2022-08-17T08:07:36.647Z,41.56
2022-08-17T08:08:36.637Z,41.08
2022-08-17T08:09:36.626Z,41.27
2022-08-17T08:10:36.619Z,41.08
2022-08-17T08:11:39.252Z,41.08
2022-08-17T08:12:37.589Z,41.27
2022-08-17T08:13:36.580Z,41.25
2022-08-17T08:14:36.570Z,40.88
2022-08-17T08:15:36.560Z,41.47
2022-08-17T08:16:36.580Z,41.56
2022-08-17T08:17:36.541Z,41.05
2022-08-17T08:18:54.369Z,41.27
2022-08-17T08:19:37.515Z,41.47
2022-08-17T08:20:52.145Z,41.37
2022-08-17T08:21:37.500Z,41.25
2022-08-17T08:22:36.484Z,41.86
2022-08-17T08:23:36.472Z,41.86
2022-08-17T08:24:36.460Z,41.37
2022-08-17T08:25:36.449Z,41.66
2022-08-17T08:26:36.438Z,41.84
2022-08-17T08:27:36.434Z,41.66
2022-08-17T08:28:36.415Z,41.45
2022-08-17T08:29:36.407Z,41.47
2022-08-17T08:30:36.394Z,41.27
2022-08-17T08:31:41.611Z,41.27
2022-08-17T08:32:37.380Z,41.15
2022-08-17T08:33:36.361Z,41.64
2022-08-17T08:34:49.745Z,41.64
2022-08-17T08:35:37.340Z,41.45
2022-08-17T08:37:14.606Z,40.95
2022-08-17T08:37:42.485Z,41.37
2022-08-17T08:38:37.312Z,41.35
2022-08-17T08:39:36.325Z,41.37
2022-08-17T08:40:36.350Z,41.15
2022-08-17T08:41:36.273Z,41.15
2022-08-17T08:42:36.263Z,41.25
2022-08-17T08:43:36.311Z,41.55
2022-08-17T08:45:00.502Z,41.55
2022-08-17T08:45:37.230Z,41.35
2022-08-17T08:46:36.277Z,41.35
2022-08-17T08:47:36.207Z,41.55
2022-08-17T08:48:53.711Z,41.35
2022-08-17T08:50:01.923Z,41.25
2022-08-17T08:50:38.623Z,41.25
2022-08-17T08:51:36.173Z,41.35
2022-08-17T08:52:36.155Z,41.25
2022-08-17T08:53:36.145Z,41.74
2022-08-17T08:54:36.139Z,40.86
2022-08-17T08:55:36.129Z,41.25
2022-08-17T08:56:36.112Z,40.86
2022-08-17T08:57:36.100Z,40.86
2022-08-17T08:58:42.079Z,40.76
2022-08-17T08:59:41.956Z,40.66
2022-08-17T09:00:37.073Z,40.86
2022-08-17T09:01:36.083Z,40.76
2022-08-17T09:02:36.047Z,40.47
2022-08-17T09:03:51.539Z,40.76
2022-08-17T09:04:55.896Z,41.15
2022-08-17T09:05:37.013Z,39.98
2022-08-17T09:06:39.099Z,40.95
2022-08-17T09:07:35.991Z,40.17
2022-08-17T09:08:35.981Z,39.96
2022-08-17T09:09:35.970Z,40.55
2022-08-17T09:10:35.958Z,40.56
2022-08-17T09:11:35.950Z,40.35
2022-08-17T09:12:36.951Z,40.35
2022-08-17T09:13:35.927Z,40.16
2022-08-17T09:14:36.571Z,40.35
2022-08-17T09:15:36.902Z,40.45
2022-08-17T09:16:35.894Z,40.25
2022-08-17T09:17:35.882Z,40.25
2022-08-17T09:19:00.457Z,40.06
2022-08-17T09:19:36.861Z,40.35
2022-08-17T09:20:35.849Z,40.45
2022-08-17T09:21:35.838Z,40.55
2022-08-17T09:22:35.826Z,40.45
2022-08-17T09:23:35.815Z,40.25
2022-08-17T09:24:35.822Z,40.45
2022-08-17T09:25:35.804Z,40.25
2022-08-17T09:26:35.784Z,40.45
2022-08-17T09:27:35.771Z,40.35
2022-08-17T09:28:35.763Z,40.35
2022-08-17T09:29:35.751Z,39.94
2022-08-17T09:30:35.746Z,40.16
2022-08-17T09:31:41.877Z,40.53
2022-08-17T09:32:36.717Z,40.45
2022-08-17T09:33:35.706Z,39.94
2022-08-17T09:34:35.695Z,40.03
2022-08-17T09:35:36.884Z,40.03
2022-08-17T09:36:35.683Z,39.84
2022-08-17T09:37:35.664Z,39.74
2022-08-17T09:38:35.652Z,39.74
2022-08-17T09:39:35.721Z,39.94
2022-08-17T09:40:35.630Z,39.94
2022-08-17T09:41:35.621Z,39.84
2022-08-17T09:42:35.616Z,40.03
2022-08-17T09:43:35.600Z,40.23
2022-08-17T09:44:35.586Z,40.03
2022-08-17T09:45:35.579Z,40.14
2022-08-17T09:46:35.565Z,40.23
2022-08-17T09:47:35.555Z,39.84
2022-08-17T09:48:35.550Z,39.84
2022-08-17T09:49:35.534Z,39.72
2022-08-17T09:50:55.481Z,39.72
2022-08-17T09:51:36.518Z,39.53
2022-08-17T09:52:35.501Z,39.62
2022-08-17T09:53:35.489Z,39.35
2022-08-17T09:54:39.161Z,39.43
2022-08-17T09:55:35.469Z,39.23
2022-08-17T09:56:35.458Z,39.53
2022-08-17T09:57:35.448Z,39.62
2022-08-17T09:58:35.438Z,39.62
2022-08-17T09:59:38.594Z,39.53
2022-08-17T10:00:35.419Z,39.61
2022-08-17T10:01:35.516Z,39.53
2022-08-17T10:02:35.394Z,39.33
2022-08-17T10:03:35.383Z,39.43
2022-08-17T10:04:35.377Z,39.51
2022-08-17T10:05:35.361Z,39.80
2022-08-17T10:06:35.356Z,39.12
2022-08-17T10:07:35.338Z,39.70
2022-08-17T10:08:35.341Z,39.80
2022-08-17T10:09:35.319Z,39.41
2022-08-17T10:10:35.308Z,39.31
2022-08-17T10:11:35.301Z,39.51
2022-08-17T10:12:36.290Z,39.41
2022-08-17T10:13:35.274Z,39.12
2022-08-17T10:14:38.076Z,39.10
2022-08-17T10:15:36.251Z,38.32
2022-08-17T10:16:35.243Z,38.32
2022-08-17T10:17:35.231Z,38.71
2022-08-17T10:18:35.246Z,38.81
2022-08-17T10:19:35.208Z,38.81
2022-08-17T10:20:35.198Z,38.49
2022-08-17T10:21:35.186Z,38.32
2022-08-17T10:22:37.930Z,38.40
2022-08-17T10:23:35.164Z,38.61
2022-08-17T10:24:35.161Z,38.01
2022-08-17T10:25:49.029Z,38.20
2022-08-17T10:26:40.573Z,38.20
2022-08-17T10:27:36.124Z,37.91
2022-08-17T10:28:35.114Z,38.59
2022-08-17T10:29:49.035Z,38.40
2022-08-17T10:30:36.105Z,37.70
2022-08-17T10:31:36.105Z,37.50
2022-08-17T10:32:35.068Z,37.79
2022-08-17T10:33:35.058Z,37.89
2022-08-17T10:34:41.008Z,37.67
2022-08-17T10:35:36.043Z,37.70
2022-08-17T10:36:35.031Z,37.50
2022-08-17T10:37:35.015Z,36.90
2022-08-17T10:38:35.004Z,37.29
2022-08-17T10:39:35.016Z,37.29
2022-08-17T10:40:35.982Z,36.88
2022-08-17T10:41:40.042Z,36.88
2022-08-17T10:42:35.969Z,37.55
2022-08-17T10:43:34.953Z,37.35
2022-08-17T10:44:38.932Z,36.47
2022-08-17T10:45:35.928Z,36.57
2022-08-17T10:46:34.918Z,36.65
2022-08-17T10:47:47.238Z,36.35
2022-08-17T10:48:35.903Z,35.86
2022-08-17T10:49:34.886Z,36.14
2022-08-17T10:50:34.874Z,35.75
2022-08-17T10:51:34.865Z,36.02
2022-08-17T10:52:34.854Z,36.51
2022-08-17T10:53:34.844Z,36.51
2022-08-17T10:54:34.843Z,36.12
2022-08-17T10:55:34.821Z,36.14
2022-08-17T10:56:34.810Z,36.53
2022-08-17T10:57:34.801Z,35.85
2022-08-17T10:58:34.789Z,35.34
2022-08-17T10:59:34.778Z,35.73
2022-08-17T11:00:34.830Z,36.02
2022-08-17T11:01:34.797Z,35.83
2022-08-17T11:02:34.745Z,35.83
2022-08-17T11:03:34.739Z,35.63
2022-08-17T11:04:34.725Z,35.23
2022-08-17T11:05:34.717Z,34.74
2022-08-17T11:06:34.719Z,34.86
2022-08-17T11:07:34.695Z,34.95
2022-08-17T11:08:34.684Z,35.02
2022-08-17T11:09:34.671Z,35.21
2022-08-17T11:10:34.662Z,35.29
2022-08-17T11:11:34.654Z,34.40
2022-08-17T11:12:34.644Z,34.30
2022-08-17T11:13:34.627Z,34.36
2022-08-17T11:14:34.619Z,33.59
2022-08-17T11:15:34.614Z,33.28
2022-08-17T11:16:34.594Z,32.87
2022-08-17T11:17:34.583Z,33.44
2022-08-17T11:18:34.581Z,32.78
2022-08-17T11:19:34.562Z,34.17
2022-08-17T11:20:34.549Z,33.99
2022-08-17T11:21:34.538Z,34.77
2022-08-17T11:22:34.529Z,34.01
2022-08-17T11:23:34.518Z,34.80
2022-08-17T11:24:34.530Z,34.20
2022-08-17T11:25:34.496Z,33.91
2022-08-17T11:26:34.484Z,35.29
2022-08-17T11:27:34.474Z,35.39
2022-08-17T11:28:34.530Z,35.19
2022-08-17T11:29:34.453Z,35.02
2022-08-17T11:30:34.463Z,35.31
2022-08-17T11:31:38.761Z,35.11
2022-08-17T11:32:35.425Z,34.92
2022-08-17T11:33:36.903Z,35.58
2022-08-17T11:34:34.399Z,33.90
2022-08-17T11:35:34.388Z,34.38
2022-08-17T11:36:34.382Z,34.30
2022-08-17T11:37:34.368Z,35.27
2022-08-17T11:38:34.358Z,34.20
2022-08-17T11:39:34.441Z,34.77
2022-08-17T11:40:34.331Z,34.98
2022-08-17T11:41:34.322Z,34.28
2022-08-17T11:42:34.315Z,34.28
2022-08-17T11:43:34.302Z,34.09
2022-08-17T11:44:34.288Z,34.09
2022-08-17T11:45:34.279Z,35.10
2022-08-17T11:46:34.269Z,34.01
2022-08-17T11:47:34.256Z,35.00
2022-08-17T11:48:34.603Z,35.50
2022-08-17T11:49:34.233Z,35.11
2022-08-17T11:50:34.221Z,34.82
2022-08-17T11:51:34.209Z,35.02
2022-08-17T11:52:34.199Z,35.23
2022-08-17T11:53:34.189Z,34.94
2022-08-17T11:54:34.862Z,36.10
2022-08-17T11:55:36.573Z,35.33
2022-08-17T11:56:34.158Z,35.70
2022-08-17T11:57:34.146Z,35.10
2022-08-17T11:58:34.136Z,34.38
2022-08-17T11:59:34.126Z,34.08
2022-08-17T12:00:34.119Z,33.94
2022-08-17T12:01:34.101Z,33.76
2022-08-17T12:02:34.090Z,33.86
2022-08-17T12:03:34.122Z,33.96
2022-08-17T12:04:34.155Z,33.67
2022-08-17T12:05:34.057Z,32.86
2022-08-17T12:06:34.053Z,32.46
2022-08-17T12:07:34.037Z,31.86
2022-08-17T12:08:34.028Z,32.04
2022-08-17T12:09:34.015Z,32.15
2022-08-17T12:10:34.004Z,32.56
2022-08-17T12:12:01.688Z,32.04
2022-08-17T12:12:35.000Z,31.94
2022-08-17T12:13:38.716Z,31.94
2022-08-17T12:15:08.487Z,32.33
2022-08-17T12:15:34.952Z,32.36
2022-08-17T12:16:33.945Z,32.68
2022-08-17T12:17:41.389Z,33.86
2022-08-17T12:18:34.924Z,34.08
2022-08-17T12:19:33.910Z,34.36
2022-08-17T12:20:33.899Z,34.09
2022-08-17T12:21:33.887Z,34.38
2022-08-17T12:22:33.876Z,34.20
2022-08-17T12:23:33.866Z,34.30
2022-08-17T12:24:33.863Z,34.59
2022-08-17T12:25:33.846Z,34.98
2022-08-17T12:26:33.835Z,35.39
2022-08-17T12:27:47.665Z,35.39
2022-08-17T12:28:34.812Z,34.90
2022-08-17T12:29:35.848Z,35.41
2022-08-17T12:30:34.812Z,34.82
2022-08-17T12:31:33.779Z,34.92
2022-08-17T12:32:33.772Z,35.11
2022-08-17T12:33:33.764Z,35.11
2022-08-17T12:34:33.749Z,35.11
2022-08-17T12:35:33.744Z,35.81
2022-08-17T12:36:33.734Z,35.61
2022-08-17T12:37:33.717Z,34.64
2022-08-17T12:38:33.770Z,36.10
2022-08-17T12:39:34.027Z,34.94
2022-08-17T12:40:33.683Z,34.74
2022-08-17T12:41:33.677Z,35.42
2022-08-17T12:42:33.677Z,34.84
2022-08-17T12:43:33.651Z,36.00
2022-08-17T12:44:33.641Z,34.74
2022-08-17T12:45:33.629Z,35.23
2022-08-17T12:46:33.786Z,36.12
2022-08-17T12:47:33.608Z,35.83
2022-08-17T12:48:33.619Z,36.02
2022-08-17T12:49:33.587Z,36.02
2022-08-17T12:50:33.579Z,35.83
2022-08-17T12:51:33.565Z,36.14
2022-08-17T12:52:33.553Z,36.04
2022-08-17T12:53:33.544Z,36.04